sensor_id;sensor_type;location;lat;lon;timestamp;pressure;altitude;pressure_sealevel;temperature;humidity
80568;BME280;69922;45.656;25.586;2024-02-21T00:00:24;95853.97;;;4.68;76.56
80568;BME280;69922;45.656;25.586;2024-02-21T00:01:49;95852.30;;;4.67;76.28
80568;BME280;69922;45.656;25.586;2024-02-21T00:02:53;95850.84;;;4.66;76.31
80568;BME280;69922;45.656;25.586;2024-02-21T00:03:57;95852.67;;;4.65;76.34
80568;BME280;69922;45.656;25.586;2024-02-21T00:05:01;95850.95;;;4.63;76.32
80568;BME280;69922;45.656;25.586;2024-02-21T00:06:06;95850.73;;;4.62;76.46
80568;BME280;69922;45.656;25.586;2024-02-21T00:07:10;95851.31;;;4.60;76.23
80568;BME280;69922;45.656;25.586;2024-02-21T00:08:17;95842.77;;;4.57;76.64
80568;BME280;69922;45.656;25.586;2024-02-21T00:09:21;95844.50;;;4.55;76.60
80568;BME280;69922;45.656;25.586;2024-02-21T00:10:25;95844.07;;;4.56;76.56
80568;BME280;69922;45.656;25.586;2024-02-21T00:11:29;95845.64;;;4.54;76.40
80568;BME280;69922;45.656;25.586;2024-02-21T00:12:33;95841.67;;;4.51;76.59
80568;BME280;69922;45.656;25.586;2024-02-21T00:13:37;95839.74;;;4.49;76.70
80568;BME280;69922;45.656;25.586;2024-02-21T00:14:41;95838.00;;;4.48;76.54
80568;BME280;69922;45.656;25.586;2024-02-21T00:15:45;95838.98;;;4.45;76.70
80568;BME280;69922;45.656;25.586;2024-02-21T00:16:49;95835.99;;;4.44;76.62
80568;BME280;69922;45.656;25.586;2024-02-21T00:17:54;95834.75;;;4.42;76.77
80568;BME280;69922;45.656;25.586;2024-02-21T00:18:58;95837.98;;;4.41;76.71
80568;BME280;69922;45.656;25.586;2024-02-21T00:20:04;95833.77;;;4.38;76.79
80568;BME280;69922;45.656;25.586;2024-02-21T00:21:11;95830.36;;;4.36;76.83
80568;BME280;69922;45.656;25.586;2024-02-21T00:22:24;95827.44;;;4.34;76.81
80568;BME280;69922;45.656;25.586;2024-02-21T00:23:30;95826.78;;;4.31;76.67
80568;BME280;69922;45.656;25.586;2024-02-21T00:24:36;95831.55;;;4.29;76.75
80568;BME280;69922;45.656;25.586;2024-02-21T00:25:41;95827.11;;;4.25;76.76
80568;BME280;69922;45.656;25.586;2024-02-21T00:26:45;95827.27;;;4.23;76.96
80568;BME280;69922;45.656;25.586;2024-02-21T00:27:49;95824.23;;;4.21;76.90
80568;BME280;69922;45.656;25.586;2024-02-21T00:28:54;95825.31;;;4.19;76.99
80568;BME280;69922;45.656;25.586;2024-02-21T00:29:58;95822.55;;;4.18;76.84
80568;BME280;69922;45.656;25.586;2024-02-21T00:31:02;95822.28;;;4.16;77.01
80568;BME280;69922;45.656;25.586;2024-02-21T00:32:07;95821.25;;;4.15;76.81
80568;BME280;69922;45.656;25.586;2024-02-21T00:33:12;95824.27;;;4.14;76.64
80568;BME280;69922;45.656;25.586;2024-02-21T00:34:16;95823.95;;;4.13;76.89
80568;BME280;69922;45.656;25.586;2024-02-21T00:35:20;95821.23;;;4.12;76.79
80568;BME280;69922;45.656;25.586;2024-02-21T00:36:25;95822.48;;;4.12;76.71
80568;BME280;69922;45.656;25.586;2024-02-21T00:37:28;95823.99;;;4.11;76.90
80568;BME280;69922;45.656;25.586;2024-02-21T00:38:32;95822.75;;;4.11;76.91
80568;BME280;69922;45.656;25.586;2024-02-21T00:39:37;95824.59;;;4.11;76.83
80568;BME280;69922;45.656;25.586;2024-02-21T00:40:41;95819.29;;;4.11;76.75
80568;BME280;69922;45.656;25.586;2024-02-21T00:41:46;95818.98;;;4.12;76.83
80568;BME280;69922;45.656;25.586;2024-02-21T00:42:50;95816.70;;;4.13;76.81
80568;BME280;69922;45.656;25.586;2024-02-21T00:43:54;95817.25;;;4.14;76.74
80568;BME280;69922;45.656;25.586;2024-02-21T00:44:58;95818.55;;;4.15;76.96
80568;BME280;69922;45.656;25.586;2024-02-21T00:46:03;95809.52;;;4.15;77.03
80568;BME280;69922;45.656;25.586;2024-02-21T00:47:09;95808.60;;;4.17;76.87
80568;BME280;69922;45.656;25.586;2024-02-21T00:48:13;95808.60;;;4.18;76.98
80568;BME280;69922;45.656;25.586;2024-02-21T00:49:18;95806.48;;;4.19;76.85
80568;BME280;69922;45.656;25.586;2024-02-21T00:50:22;95807.14;;;4.19;76.76
80568;BME280;69922;45.656;25.586;2024-02-21T00:51:26;95807.25;;;4.19;76.77
80568;BME280;69922;45.656;25.586;2024-02-21T00:52:30;95803.20;;;4.20;76.87
80568;BME280;69922;45.656;25.586;2024-02-21T00:53:34;95802.29;;;4.20;77.01
80568;BME280;69922;45.656;25.586;2024-02-21T00:54:42;95801.41;;;4.21;76.88
80568;BME280;69922;45.656;25.586;2024-02-21T00:55:57;95800.92;;;4.22;76.56
80568;BME280;69922;45.656;25.586;2024-02-21T00:57:01;95801.20;;;4.22;76.81
80568;BME280;69922;45.656;25.586;2024-02-21T00:58:06;95801.90;;;4.22;76.68
80568;BME280;69922;45.656;25.586;2024-02-21T00:59:11;95800.16;;;4.22;76.88
80568;BME280;69922;45.656;25.586;2024-02-21T01:00:18;95796.06;;;4.22;76.51
80568;BME280;69922;45.656;25.586;2024-02-21T01:01:27;95794.38;;;4.23;76.77
80568;BME280;69922;45.656;25.586;2024-02-21T01:02:31;95797.48;;;4.23;76.75
80568;BME280;69922;45.656;25.586;2024-02-21T01:03:36;95795.47;;;4.24;76.38
80568;BME280;69922;45.656;25.586;2024-02-21T01:04:39;95794.28;;;4.24;76.78
80568;BME280;69922;45.656;25.586;2024-02-21T01:05:43;95792.17;;;4.25;76.85
80568;BME280;69922;45.656;25.586;2024-02-21T01:06:47;95788.13;;;4.25;76.72
80568;BME280;69922;45.656;25.586;2024-02-21T01:07:52;95787.80;;;4.26;76.73
80568;BME280;69922;45.656;25.586;2024-02-21T01:08:58;95781.64;;;4.25;76.68
80568;BME280;69922;45.656;25.586;2024-02-21T01:10:04;95785.11;;;4.26;76.60
80568;BME280;69922;45.656;25.586;2024-02-21T01:11:08;95785.15;;;4.27;76.65
80568;BME280;69922;45.656;25.586;2024-02-21T01:12:13;95785.80;;;4.26;76.71
80568;BME280;69922;45.656;25.586;2024-02-21T01:13:16;95786.45;;;4.27;76.60
80568;BME280;69922;45.656;25.586;2024-02-21T01:14:21;95784.40;;;4.27;76.49
80568;BME280;69922;45.656;25.586;2024-02-21T01:15:25;95783.80;;;4.28;76.42
80568;BME280;69922;45.656;25.586;2024-02-21T01:16:29;95785.05;;;4.28;76.60
80568;BME280;69922;45.656;25.586;2024-02-21T01:17:33;95779.20;;;4.27;76.29
80568;BME280;69922;45.656;25.586;2024-02-21T01:18:38;95778.83;;;4.28;76.35
80568;BME280;69922;45.656;25.586;2024-02-21T01:19:45;95779.58;;;4.29;76.37
80568;BME280;69922;45.656;25.586;2024-02-21T01:20:50;95771.80;;;4.25;76.49
80568;BME280;69922;45.656;25.586;2024-02-21T01:21:54;95773.80;;;4.29;76.32
80568;BME280;69922;45.656;25.586;2024-02-21T01:22:59;95773.69;;;4.29;76.74
80568;BME280;69922;45.656;25.586;2024-02-21T01:24:04;95775.36;;;4.29;76.71
80568;BME280;69922;45.656;25.586;2024-02-21T01:25:09;95775.27;;;4.29;76.48
80568;BME280;69922;45.656;25.586;2024-02-21T01:26:13;95775.20;;;4.28;76.45
80568;BME280;69922;45.656;25.586;2024-02-21T01:27:19;95773.20;;;4.28;76.28
80568;BME280;69922;45.656;25.586;2024-02-21T01:28:24;95776.55;;;4.28;76.27
80568;BME280;69922;45.656;25.586;2024-02-21T01:29:29;95777.14;;;4.28;76.24
80568;BME280;69922;45.656;25.586;2024-02-21T01:30:33;95777.14;;;4.29;76.36
80568;BME280;69922;45.656;25.586;2024-02-21T01:31:38;95774.55;;;4.29;76.03
80568;BME280;69922;45.656;25.586;2024-02-21T01:32:42;95771.52;;;4.29;76.16
80568;BME280;69922;45.656;25.586;2024-02-21T01:33:45;95775.09;;;4.29;76.13
80568;BME280;69922;45.656;25.586;2024-02-21T01:34:50;95772.71;;;4.30;76.02
80568;BME280;69922;45.656;25.586;2024-02-21T01:35:56;95770.94;;;4.31;76.08
80568;BME280;69922;45.656;25.586;2024-02-21T01:37:00;95772.06;;;4.32;75.94
80568;BME280;69922;45.656;25.586;2024-02-21T01:38:08;95766.71;;;4.32;75.57
80568;BME280;69922;45.656;25.586;2024-02-21T01:39:12;95770.17;;;4.33;75.89
80568;BME280;69922;45.656;25.586;2024-02-21T01:40:18;95768.45;;;4.34;75.57
80568;BME280;69922;45.656;25.586;2024-02-21T01:41:22;95768.17;;;4.33;75.37
80568;BME280;69922;45.656;25.586;2024-02-21T01:42:27;95771.57;;;4.33;75.06
80568;BME280;69922;45.656;25.586;2024-02-21T01:43:31;95765.90;;;4.31;75.15
80568;BME280;69922;45.656;25.586;2024-02-21T01:44:35;95765.42;;;4.29;75.05
80568;BME280;69922;45.656;25.586;2024-02-21T01:45:41;95767.36;;;4.26;75.07
80568;BME280;69922;45.656;25.586;2024-02-21T01:46:45;95763.95;;;4.23;74.96
80568;BME280;69922;45.656;25.586;2024-02-21T01:47:51;95764.65;;;4.21;75.13
80568;BME280;69922;45.656;25.586;2024-02-21T01:48:58;95766.34;;;4.20;75.07
80568;BME280;69922;45.656;25.586;2024-02-21T01:50:08;95765.95;;;4.19;75.20
80568;BME280;69922;45.656;25.586;2024-02-21T01:51:11;95768.21;;;4.18;74.89
80568;BME280;69922;45.656;25.586;2024-02-21T01:52:20;95771.25;;;4.15;74.84
80568;BME280;69922;45.656;25.586;2024-02-21T01:53:29;95770.43;;;4.13;75.05
80568;BME280;69922;45.656;25.586;2024-02-21T01:54:35;95772.15;;;4.10;75.72
80568;BME280;69922;45.656;25.586;2024-02-21T01:55:39;95770.00;;;4.07;75.92
80568;BME280;69922;45.656;25.586;2024-02-21T01:56:47;95773.77;;;4.05;76.18
80568;BME280;69922;45.656;25.586;2024-02-21T01:57:51;95774.95;;;4.03;76.35
80568;BME280;69922;45.656;25.586;2024-02-21T01:58:56;95773.81;;;4.01;76.81
80568;BME280;69922;45.656;25.586;2024-02-21T02:00:00;95773.70;;;3.97;77.14
80568;BME280;69922;45.656;25.586;2024-02-21T02:01:06;95776.77;;;3.94;77.67
80568;BME280;69922;45.656;25.586;2024-02-21T02:02:11;95774.94;;;3.92;77.81
80568;BME280;69922;45.656;25.586;2024-02-21T02:03:17;95773.52;;;3.89;77.93
80568;BME280;69922;45.656;25.586;2024-02-21T02:04:22;95770.11;;;3.87;78.11
80568;BME280;69922;45.656;25.586;2024-02-21T02:05:27;95769.95;;;3.85;78.40
80568;BME280;69922;45.656;25.586;2024-02-21T02:06:32;95771.51;;;3.83;78.74
80568;BME280;69922;45.656;25.586;2024-02-21T02:07:37;95768.64;;;3.81;78.80
80568;BME280;69922;45.656;25.586;2024-02-21T02:08:40;95767.55;;;3.78;79.34
80568;BME280;69922;45.656;25.586;2024-02-21T02:09:45;95769.87;;;3.77;79.33
80568;BME280;69922;45.656;25.586;2024-02-21T02:10:49;95767.59;;;3.74;79.34
80568;BME280;69922;45.656;25.586;2024-02-21T02:11:53;95765.10;;;3.72;79.21
80568;BME280;69922;45.656;25.586;2024-02-21T02:12:58;95765.27;;;3.70;79.30
80568;BME280;69922;45.656;25.586;2024-02-21T02:14:02;95763.69;;;3.69;79.56
80568;BME280;69922;45.656;25.586;2024-02-21T02:15:11;95762.02;;;3.68;79.50
80568;BME280;69922;45.656;25.586;2024-02-21T02:16:15;95765.64;;;3.68;79.79
80568;BME280;69922;45.656;25.586;2024-02-21T02:17:19;95765.27;;;3.67;79.70
80568;BME280;69922;45.656;25.586;2024-02-21T02:18:25;95766.39;;;3.67;79.79
80568;BME280;69922;45.656;25.586;2024-02-21T02:19:29;95768.45;;;3.66;79.65
80568;BME280;69922;45.656;25.586;2024-02-21T02:20:34;95765.90;;;3.65;79.98
80568;BME280;69922;45.656;25.586;2024-02-21T02:21:41;95767.23;;;3.65;79.82
80568;BME280;69922;45.656;25.586;2024-02-21T02:22:48;95765.67;;;3.63;79.73
80568;BME280;69922;45.656;25.586;2024-02-21T02:23:54;95769.83;;;3.62;79.90
80568;BME280;69922;45.656;25.586;2024-02-21T02:24:57;95769.45;;;3.62;80.22
80568;BME280;69922;45.656;25.586;2024-02-21T02:26:02;95769.51;;;3.60;80.42
80568;BME280;69922;45.656;25.586;2024-02-21T02:27:07;95769.18;;;3.59;80.15
80568;BME280;69922;45.656;25.586;2024-02-21T02:28:11;95767.98;;;3.58;80.12
80568;BME280;69922;45.656;25.586;2024-02-21T02:29:16;95765.96;;;3.55;80.15
80568;BME280;69922;45.656;25.586;2024-02-21T02:30:21;95766.94;;;3.54;79.96
80568;BME280;69922;45.656;25.586;2024-02-21T02:31:25;95762.55;;;3.52;80.19
80568;BME280;69922;45.656;25.586;2024-02-21T02:32:29;95761.27;;;3.51;80.26
80568;BME280;69922;45.656;25.586;2024-02-21T02:33:34;95759.16;;;3.49;80.48
80568;BME280;69922;45.656;25.586;2024-02-21T02:34:38;95755.68;;;3.46;80.39
80568;BME280;69922;45.656;25.586;2024-02-21T02:35:43;95752.48;;;3.42;80.56
80568;BME280;69922;45.656;25.586;2024-02-21T02:36:47;95753.61;;;3.38;80.28
80568;BME280;69922;45.656;25.586;2024-02-21T02:37:53;95753.64;;;3.34;80.53
80568;BME280;69922;45.656;25.586;2024-02-21T02:38:58;95749.79;;;3.28;80.60
80568;BME280;69922;45.656;25.586;2024-02-21T02:40:02;95753.92;;;3.25;80.57
80568;BME280;69922;45.656;25.586;2024-02-21T02:41:06;95756.71;;;3.20;80.79
80568;BME280;69922;45.656;25.586;2024-02-21T02:42:10;95756.31;;;3.16;81.17
80568;BME280;69922;45.656;25.586;2024-02-21T02:43:15;95751.83;;;3.12;80.82
80568;BME280;69922;45.656;25.586;2024-02-21T02:44:19;95751.05;;;3.08;81.47
80568;BME280;69922;45.656;25.586;2024-02-21T02:45:24;95750.05;;;3.04;80.95
80568;BME280;69922;45.656;25.586;2024-02-21T02:46:30;95750.58;;;3.00;81.05
80568;BME280;69922;45.656;25.586;2024-02-21T02:47:35;95746.73;;;2.97;81.36
80568;BME280;69922;45.656;25.586;2024-02-21T02:48:39;95751.34;;;2.93;81.39
80568;BME280;69922;45.656;25.586;2024-02-21T02:49:43;95748.91;;;2.90;81.61
80568;BME280;69922;45.656;25.586;2024-02-21T02:50:48;95752.83;;;2.88;82.20
80568;BME280;69922;45.656;25.586;2024-02-21T02:51:53;95750.69;;;2.84;82.01
80568;BME280;69922;45.656;25.586;2024-02-21T02:52:57;95751.08;;;2.82;81.93
80568;BME280;69922;45.656;25.586;2024-02-21T02:54:01;95749.92;;;2.80;82.21
80568;BME280;69922;45.656;25.586;2024-02-21T02:55:09;95751.59;;;2.77;82.23
80568;BME280;69922;45.656;25.586;2024-02-21T02:56:16;95751.98;;;2.75;82.51
80568;BME280;69922;45.656;25.586;2024-02-21T02:57:21;95753.17;;;2.72;82.69
80568;BME280;69922;45.656;25.586;2024-02-21T02:58:25;95754.55;;;2.69;82.91
80568;BME280;69922;45.656;25.586;2024-02-21T02:59:30;95753.73;;;2.67;83.10
80568;BME280;69922;45.656;25.586;2024-02-21T03:00:34;95751.61;;;2.65;82.99
80568;BME280;69922;45.656;25.586;2024-02-21T03:01:39;95754.61;;;2.64;82.80
80568;BME280;69922;45.656;25.586;2024-02-21T03:02:49;95753.70;;;2.62;83.17
80568;BME280;69922;45.656;25.586;2024-02-21T03:03:54;95751.25;;;2.59;83.05
80568;BME280;69922;45.656;25.586;2024-02-21T03:04:59;95757.05;;;2.58;83.20
80568;BME280;69922;45.656;25.586;2024-02-21T03:06:04;95757.33;;;2.56;82.86
80568;BME280;69922;45.656;25.586;2024-02-21T03:07:09;95753.00;;;2.55;83.25
80568;BME280;69922;45.656;25.586;2024-02-21T03:08:13;95753.09;;;2.53;83.28
80568;BME280;69922;45.656;25.586;2024-02-21T03:09:17;95756.31;;;2.52;83.22
80568;BME280;69922;45.656;25.586;2024-02-21T03:10:22;95760.72;;;2.50;83.41
80568;BME280;69922;45.656;25.586;2024-02-21T03:11:26;95758.72;;;2.49;83.52
80568;BME280;69922;45.656;25.586;2024-02-21T03:12:34;95760.06;;;2.48;83.44
80568;BME280;69922;45.656;25.586;2024-02-21T03:13:38;95763.13;;;2.47;83.32
80568;BME280;69922;45.656;25.586;2024-02-21T03:14:43;95761.66;;;2.45;83.38
80568;BME280;69922;45.656;25.586;2024-02-21T03:15:47;95761.86;;;2.44;83.34
80568;BME280;69922;45.656;25.586;2024-02-21T03:16:52;95761.90;;;2.42;83.54
80568;BME280;69922;45.656;25.586;2024-02-21T03:17:56;95761.46;;;2.41;83.34
80568;BME280;69922;45.656;25.586;2024-02-21T03:19:00;95762.86;;;2.39;83.64
80568;BME280;69922;45.656;25.586;2024-02-21T03:20:09;95762.73;;;2.37;83.36
80568;BME280;69922;45.656;25.586;2024-02-21T03:21:14;95763.17;;;2.37;83.36
80568;BME280;69922;45.656;25.586;2024-02-21T03:22:17;95766.75;;;2.36;83.52
80568;BME280;69922;45.656;25.586;2024-02-21T03:23:21;95770.73;;;2.35;83.65
80568;BME280;69922;45.656;25.586;2024-02-21T03:24:25;95767.77;;;2.33;83.64
80568;BME280;69922;45.656;25.586;2024-02-21T03:25:29;95768.30;;;2.32;83.98
80568;BME280;69922;45.656;25.586;2024-02-21T03:26:33;95772.17;;;2.32;83.59
80568;BME280;69922;45.656;25.586;2024-02-21T03:27:37;95769.14;;;2.30;84.05
80568;BME280;69922;45.656;25.586;2024-02-21T03:28:41;95770.76;;;2.30;83.94
80568;BME280;69922;45.656;25.586;2024-02-21T03:29:46;95774.42;;;2.29;83.75
80568;BME280;69922;45.656;25.586;2024-02-21T03:30:50;95774.52;;;2.28;83.94
80568;BME280;69922;45.656;25.586;2024-02-21T03:31:54;95774.77;;;2.26;83.76
80568;BME280;69922;45.656;25.586;2024-02-21T03:32:58;95775.79;;;2.25;84.14
80568;BME280;69922;45.656;25.586;2024-02-21T03:34:02;95779.06;;;2.25;84.49
80568;BME280;69922;45.656;25.586;2024-02-21T03:35:07;95778.73;;;2.24;84.09
80568;BME280;69922;45.656;25.586;2024-02-21T03:36:15;95777.07;;;2.23;84.19
80568;BME280;69922;45.656;25.586;2024-02-21T03:37:19;95778.56;;;2.23;84.40
80568;BME280;69922;45.656;25.586;2024-02-21T03:38:24;95778.39;;;2.22;84.52
80568;BME280;69922;45.656;25.586;2024-02-21T03:39:27;95779.48;;;2.22;84.61
80568;BME280;69922;45.656;25.586;2024-02-21T03:40:34;95777.85;;;2.21;84.39
80568;BME280;69922;45.656;25.586;2024-02-21T03:41:38;95781.61;;;2.21;84.21
80568;BME280;69922;45.656;25.586;2024-02-21T03:42:42;95780.98;;;2.21;84.28
80568;BME280;69922;45.656;25.586;2024-02-21T03:43:46;95784.70;;;2.21;84.69
80568;BME280;69922;45.656;25.586;2024-02-21T03:44:51;95782.90;;;2.21;84.26
80568;BME280;69922;45.656;25.586;2024-02-21T03:45:54;95787.50;;;2.21;84.77
80568;BME280;69922;45.656;25.586;2024-02-21T03:46:59;95787.11;;;2.21;84.45
80568;BME280;69922;45.656;25.586;2024-02-21T03:48:06;95787.57;;;2.22;84.19
80568;BME280;69922;45.656;25.586;2024-02-21T03:49:10;95789.27;;;2.22;83.91
80568;BME280;69922;45.656;25.586;2024-02-21T03:50:15;95787.95;;;2.23;84.14
80568;BME280;69922;45.656;25.586;2024-02-21T03:51:21;95787.86;;;2.25;83.96
80568;BME280;69922;45.656;25.586;2024-02-21T03:52:25;95788.20;;;2.28;83.98
80568;BME280;69922;45.656;25.586;2024-02-21T03:53:29;95790.11;;;2.30;84.04
80568;BME280;69922;45.656;25.586;2024-02-21T03:54:34;95791.85;;;2.32;83.84
80568;BME280;69922;45.656;25.586;2024-02-21T03:55:38;95790.10;;;2.35;84.08
80568;BME280;69922;45.656;25.586;2024-02-21T03:56:41;95789.96;;;2.38;83.77
80568;BME280;69922;45.656;25.586;2024-02-21T03:57:46;95791.98;;;2.41;83.62
80568;BME280;69922;45.656;25.586;2024-02-21T03:58:50;95791.94;;;2.43;83.97
80568;BME280;69922;45.656;25.586;2024-02-21T03:59:54;95791.70;;;2.46;83.56
80568;BME280;69922;45.656;25.586;2024-02-21T04:01:01;95790.75;;;2.48;83.86
80568;BME280;69922;45.656;25.586;2024-02-21T04:02:05;95791.74;;;2.52;83.47
80568;BME280;69922;45.656;25.586;2024-02-21T04:03:12;95791.45;;;2.55;83.85
80568;BME280;69922;45.656;25.586;2024-02-21T04:04:16;95790.71;;;2.58;83.68
80568;BME280;69922;45.656;25.586;2024-02-21T04:05:20;95787.05;;;2.60;83.51
80568;BME280;69922;45.656;25.586;2024-02-21T04:06:24;95789.71;;;2.62;83.62
80568;BME280;69922;45.656;25.586;2024-02-21T04:07:28;95789.14;;;2.66;83.45
80568;BME280;69922;45.656;25.586;2024-02-21T04:08:32;95787.23;;;2.69;83.38
80568;BME280;69922;45.656;25.586;2024-02-21T04:09:37;95787.46;;;2.71;83.41
80568;BME280;69922;45.656;25.586;2024-02-21T04:10:40;95784.66;;;2.75;83.18
80568;BME280;69922;45.656;25.586;2024-02-21T04:11:45;95784.27;;;2.77;83.32
80568;BME280;69922;45.656;25.586;2024-02-21T04:12:49;95784.17;;;2.80;83.70
80568;BME280;69922;45.656;25.586;2024-02-21T04:13:54;95783.81;;;2.82;83.02
80568;BME280;69922;45.656;25.586;2024-02-21T04:14:59;95782.73;;;2.84;83.15
80568;BME280;69922;45.656;25.586;2024-02-21T04:16:04;95783.41;;;2.85;83.11
80568;BME280;69922;45.656;25.586;2024-02-21T04:17:09;95783.48;;;2.88;83.18
80568;BME280;69922;45.656;25.586;2024-02-21T04:18:13;95781.48;;;2.90;83.06
80568;BME280;69922;45.656;25.586;2024-02-21T04:19:18;95782.80;;;2.91;82.92
80568;BME280;69922;45.656;25.586;2024-02-21T04:20:22;95787.06;;;2.92;82.88
80568;BME280;69922;45.656;25.586;2024-02-21T04:21:27;95783.07;;;2.95;82.76
80568;BME280;69922;45.656;25.586;2024-02-21T04:22:31;95780.89;;;2.96;82.71
80568;BME280;69922;45.656;25.586;2024-02-21T04:23:39;95788.21;;;2.97;82.79
80568;BME280;69922;45.656;25.586;2024-02-21T04:24:43;95788.14;;;2.99;83.24
80568;BME280;69922;45.656;25.586;2024-02-21T04:25:46;95783.61;;;3.02;82.77
80568;BME280;69922;45.656;25.586;2024-02-21T04:26:50;95785.18;;;3.04;82.81
80568;BME280;69922;45.656;25.586;2024-02-21T04:27:54;95786.59;;;3.06;82.94
80568;BME280;69922;45.656;25.586;2024-02-21T04:28:59;95785.54;;;3.08;82.83
80568;BME280;69922;45.656;25.586;2024-02-21T04:30:04;95785.86;;;3.10;82.61
80568;BME280;69922;45.656;25.586;2024-02-21T04:31:09;95783.82;;;3.12;82.51
80568;BME280;69922;45.656;25.586;2024-02-21T04:32:14;95783.44;;;3.13;82.52
80568;BME280;69922;45.656;25.586;2024-02-21T04:33:17;95785.70;;;3.13;82.34
80568;BME280;69922;45.656;25.586;2024-02-21T04:34:22;95784.38;;;3.15;82.68
80568;BME280;69922;45.656;25.586;2024-02-21T04:35:26;95786.15;;;3.16;82.51
80568;BME280;69922;45.656;25.586;2024-02-21T04:36:30;95783.21;;;3.17;82.62
80568;BME280;69922;45.656;25.586;2024-02-21T04:37:34;95784.72;;;3.20;82.74
80568;BME280;69922;45.656;25.586;2024-02-21T04:38:38;95783.11;;;3.23;82.49
80568;BME280;69922;45.656;25.586;2024-02-21T04:39:42;95783.45;;;3.25;82.82
80568;BME280;69922;45.656;25.586;2024-02-21T04:40:47;95783.42;;;3.28;82.61
80568;BME280;69922;45.656;25.586;2024-02-21T04:41:53;95783.96;;;3.31;82.61
80568;BME280;69922;45.656;25.586;2024-02-21T04:42:57;95786.95;;;3.34;82.20
80568;BME280;69922;45.656;25.586;2024-02-21T04:44:01;95784.96;;;3.36;82.33
80568;BME280;69922;45.656;25.586;2024-02-21T04:45:10;95784.00;;;3.37;81.84
80568;BME280;69922;45.656;25.586;2024-02-21T04:46:15;95783.90;;;3.40;81.97
80568;BME280;69922;45.656;25.586;2024-02-21T04:47:20;95785.79;;;3.41;81.82
80568;BME280;69922;45.656;25.586;2024-02-21T04:48:24;95783.30;;;3.43;81.76
80568;BME280;69922;45.656;25.586;2024-02-21T04:49:28;95781.80;;;3.44;81.93
80568;BME280;69922;45.656;25.586;2024-02-21T04:50:33;95785.32;;;3.46;81.57
80568;BME280;69922;45.656;25.586;2024-02-21T04:51:37;95784.36;;;3.47;81.55
80568;BME280;69922;45.656;25.586;2024-02-21T04:52:44;95783.58;;;3.49;81.26
80568;BME280;69922;45.656;25.586;2024-02-21T04:53:48;95782.59;;;3.50;81.57
80568;BME280;69922;45.656;25.586;2024-02-21T04:54:52;95780.33;;;3.52;81.42
80568;BME280;69922;45.656;25.586;2024-02-21T04:55:55;95782.87;;;3.53;81.43
80568;BME280;69922;45.656;25.586;2024-02-21T04:57:01;95782.55;;;3.54;81.43
80568;BME280;69922;45.656;25.586;2024-02-21T04:58:06;95788.07;;;3.56;81.38
80568;BME280;69922;45.656;25.586;2024-02-21T04:59:10;95787.05;;;3.57;81.11
80568;BME280;69922;45.656;25.586;2024-02-21T05:00:17;95788.84;;;3.58;81.19
80568;BME280;69922;45.656;25.586;2024-02-21T05:01:21;95788.18;;;3.58;81.40
80568;BME280;69922;45.656;25.586;2024-02-21T05:02:25;95786.30;;;3.59;81.19
80568;BME280;69922;45.656;25.586;2024-02-21T05:03:29;95785.33;;;3.59;81.30
80568;BME280;69922;45.656;25.586;2024-02-21T05:04:33;95786.57;;;3.60;81.11
80568;BME280;69922;45.656;25.586;2024-02-21T05:05:38;95790.84;;;3.61;80.99
80568;BME280;69922;45.656;25.586;2024-02-21T05:06:42;95790.61;;;3.62;81.42
80568;BME280;69922;45.656;25.586;2024-02-21T05:07:47;95792.52;;;3.63;81.21
80568;BME280;69922;45.656;25.586;2024-02-21T05:08:51;95792.58;;;3.64;81.34
80568;BME280;69922;45.656;25.586;2024-02-21T05:09:55;95787.93;;;3.65;81.31
80568;BME280;69922;45.656;25.586;2024-02-21T05:10:59;95788.04;;;3.65;81.48
80568;BME280;69922;45.656;25.586;2024-02-21T05:12:04;95789.73;;;3.66;81.13
80568;BME280;69922;45.656;25.586;2024-02-21T05:13:10;95786.76;;;3.66;81.18
80568;BME280;69922;45.656;25.586;2024-02-21T05:14:14;95787.14;;;3.67;81.28
80568;BME280;69922;45.656;25.586;2024-02-21T05:15:18;95789.89;;;3.68;81.49
80568;BME280;69922;45.656;25.586;2024-02-21T05:16:22;95792.23;;;3.69;81.32
80568;BME280;69922;45.656;25.586;2024-02-21T05:17:27;95791.47;;;3.71;81.14
80568;BME280;69922;45.656;25.586;2024-02-21T05:18:32;95791.73;;;3.72;81.00
80568;BME280;69922;45.656;25.586;2024-02-21T05:19:37;95788.77;;;3.73;81.25
80568;BME280;69922;45.656;25.586;2024-02-21T05:20:42;95792.55;;;3.75;81.29
80568;BME280;69922;45.656;25.586;2024-02-21T05:21:48;95793.09;;;3.76;80.84
80568;BME280;69922;45.656;25.586;2024-02-21T05:22:52;95791.98;;;3.78;80.82
80568;BME280;69922;45.656;25.586;2024-02-21T05:23:56;95789.98;;;3.79;80.74
80568;BME280;69922;45.656;25.586;2024-02-21T05:25:01;95790.04;;;3.79;80.80
80568;BME280;69922;45.656;25.586;2024-02-21T05:26:05;95790.80;;;3.81;80.76
80568;BME280;69922;45.656;25.586;2024-02-21T05:27:10;95793.49;;;3.82;80.96
80568;BME280;69922;45.656;25.586;2024-02-21T05:28:14;95790.80;;;3.83;80.65
80568;BME280;69922;45.656;25.586;2024-02-21T05:29:18;95793.55;;;3.84;80.78
80568;BME280;69922;45.656;25.586;2024-02-21T05:30:22;95795.83;;;3.84;80.44
80568;BME280;69922;45.656;25.586;2024-02-21T05:31:26;95800.64;;;3.86;80.56
80568;BME280;69922;45.656;25.586;2024-02-21T05:32:47;95801.24;;;3.86;80.60
80568;BME280;69922;45.656;25.586;2024-02-21T05:33:51;95803.02;;;3.87;80.91
80568;BME280;69922;45.656;25.586;2024-02-21T05:34:55;95801.18;;;3.89;80.74
80568;BME280;69922;45.656;25.586;2024-02-21T05:35:59;95802.45;;;3.90;80.58
80568;BME280;69922;45.656;25.586;2024-02-21T05:37:05;95803.73;;;3.91;80.60
80568;BME280;69922;45.656;25.586;2024-02-21T05:38:08;95803.63;;;3.92;80.31
80568;BME280;69922;45.656;25.586;2024-02-21T05:39:16;95802.61;;;3.93;80.53
80568;BME280;69922;45.656;25.586;2024-02-21T05:40:21;95801.69;;;3.94;80.58
80568;BME280;69922;45.656;25.586;2024-02-21T05:41:25;95804.55;;;3.96;80.20
80568;BME280;69922;45.656;25.586;2024-02-21T05:42:29;95804.08;;;3.98;80.28
80568;BME280;69922;45.656;25.586;2024-02-21T05:43:34;95804.52;;;4.00;80.31